Dallas, Texas
Traffic Map
Current Weather Conditions
Dallas, Texas
Few Clouds
Few Clouds
28°
Feels Like: 30°
Wind Chill: 28° Ceiling: Unl
Heat Index: 30° Visibility: 10mi
Dew Point: 22° Wind: 22mph
Humidity: 69% Direction: 130° (SE)
Pressure: 29.95in Gusts: 28mph
Raw Report DataKDAL 190153Z 13019G24KT 10SM FEW040 FEW250 28/22 A2995 RMK AO2 SLP134 T02780217
Traffic Incident Summary
Active as of:
Severity:
Category:
InformationThere was an issue retrieving the traffic information for this location. Please try a different location or try again shortly.
Advertisements